createdAt,value
2018-04-24T00:01:58.364Z,101269.92
2018-04-24T00:04:28.802Z,101274.05
2018-04-24T00:07:09.478Z,101276.94
2018-04-24T00:09:40.221Z,101274.22
2018-04-24T00:12:11.033Z,101278.20
2018-04-24T00:14:42.786Z,101287.52
2018-04-24T00:17:13.751Z,101289.12
2018-04-24T00:19:44.050Z,101281.86
2018-04-24T00:22:14.587Z,101284.63
2018-04-24T00:25:01.334Z,101286.34
2018-04-24T00:27:38.929Z,101273.75
2018-04-24T00:30:09.443Z,101269.47
2018-04-24T00:32:39.796Z,101277.12
2018-04-24T00:35:11.459Z,101267.33
2018-04-24T00:37:41.536Z,101264.77
2018-04-24T00:40:11.887Z,101257.78
2018-04-24T00:42:42.147Z,101259.78
2018-04-24T00:45:15.036Z,101256.95
2018-04-24T00:47:45.635Z,101256.19
2018-04-24T00:50:16.564Z,101256.52
2018-04-24T00:52:46.815Z,101247.72
2018-04-24T00:55:17.261Z,101247.32
2018-04-24T00:57:47.547Z,101244.96
2018-04-24T01:00:18.424Z,101245.05
2018-04-24T01:02:49.033Z,101246.67
2018-04-24T01:05:19.128Z,101253.75
2018-04-24T01:07:49.743Z,101262.09
2018-04-24T01:10:20.408Z,101271.61
2018-04-24T01:12:51.879Z,101267.92
2018-04-24T01:15:22.358Z,101261.75
2018-04-24T01:17:52.837Z,101266.70
2018-04-24T01:20:23.049Z,101266.35
2018-04-24T01:22:53.422Z,101264.27
2018-04-24T01:25:23.671Z,101265.39
2018-04-24T01:27:54.159Z,101269.05
2018-04-24T01:30:24.883Z,101272.23
2018-04-24T01:32:55.039Z,101273.87
2018-04-24T01:35:26.161Z,101275.56
2018-04-24T01:37:56.734Z,101273.00
2018-04-24T01:40:26.951Z,101270.04
2018-04-24T01:42:57.179Z,101257.92
2018-04-24T01:45:28.837Z,101251.97
2018-04-24T01:47:59.931Z,101249.64
2018-04-24T01:50:31.054Z,101256.75
2018-04-24T01:53:02.160Z,101256.90
2018-04-24T01:55:32.441Z,101259.99
2018-04-24T01:58:02.940Z,101214.13
2018-04-24T02:00:33.636Z,101259.44
2018-04-24T02:03:03.881Z,101260.42
2018-04-24T02:05:34.405Z,101259.22
2018-04-24T02:08:06.031Z,101253.38
2018-04-24T02:10:36.107Z,101248.22
2018-04-24T02:13:07.526Z,101257.92
2018-04-24T02:15:37.928Z,101247.37
2018-04-24T02:18:08.297Z,101248.09
2018-04-24T02:20:39.371Z,101257.32
2018-04-24T02:23:10.081Z,101261.63
2018-04-24T02:25:40.477Z,101245.78
2018-04-24T02:28:12.285Z,101254.36
2018-04-24T02:30:42.872Z,101242.97
2018-04-24T02:33:13.757Z,101235.70
2018-04-24T02:35:44.511Z,101225.48
2018-04-24T02:38:14.826Z,101239.75
2018-04-24T02:40:45.059Z,101233.61
2018-04-24T02:43:15.450Z,101232.89
2018-04-24T02:45:49.111Z,101227.86
2018-04-24T02:48:22.181Z,101223.00
2018-04-24T02:50:52.539Z,101215.27
2018-04-24T02:53:23.194Z,101214.81
2018-04-24T02:55:54.389Z,101213.54
2018-04-24T02:58:25.448Z,101219.48
2018-04-24T03:00:56.158Z,101226.56
2018-04-24T03:03:26.812Z,101224.73
2018-04-24T03:05:57.772Z,101246.05
2018-04-24T03:08:28.250Z,101234.45
2018-04-24T03:10:58.807Z,101240.23
2018-04-24T03:13:28.947Z,101251.47
2018-04-24T03:15:59.412Z,101245.20
2018-04-24T03:18:29.462Z,101227.11
2018-04-24T03:20:59.814Z,101228.64
2018-04-24T03:23:29.951Z,101228.28
2018-04-24T03:26:00.636Z,101229.88
2018-04-24T03:28:30.997Z,101222.91
2018-04-24T03:31:02.329Z,101220.98
2018-04-24T03:33:33.403Z,101213.20
2018-04-24T03:36:03.777Z,101221.34
2018-04-24T03:38:34.206Z,101210.04
2018-04-24T03:41:04.859Z,101215.45
2018-04-24T03:43:35.334Z,101215.39
2018-04-24T03:46:06.171Z,101219.94
2018-04-24T03:48:36.503Z,101209.55
2018-04-24T03:51:07.058Z,101202.80
2018-04-24T03:53:37.167Z,101201.83
2018-04-24T03:56:07.236Z,101201.72
2018-04-24T03:58:37.899Z,101200.81
2018-04-24T04:01:10.298Z,101195.34
2018-04-24T04:03:40.625Z,101197.16
2018-04-24T04:08:55.365Z,101196.39
2018-04-24T04:11:25.593Z,101197.55
2018-04-24T04:13:55.787Z,101190.52
2018-04-24T04:16:29.710Z,101181.31
2018-04-24T04:20:11.511Z,101188.39
2018-04-24T04:22:53.273Z,101183.89
2018-04-24T04:25:23.444Z,101183.92
2018-04-24T04:27:56.759Z,101190.95
2018-04-24T04:30:27.194Z,101196.60
2018-04-24T04:33:06.938Z,101198.09
2018-04-24T04:35:52.328Z,101196.98
2018-04-24T04:38:33.911Z,101210.69
2018-04-24T04:41:05.126Z,101204.71
2018-04-24T04:43:36.448Z,101207.30
2018-04-24T04:46:07.943Z,101216.91
2018-04-24T04:48:38.497Z,101221.45
2018-04-24T04:51:09.538Z,101221.30
2018-04-24T04:53:39.746Z,101230.22
2018-04-24T04:56:11.384Z,101233.05
2018-04-24T04:58:41.701Z,101250.20
2018-04-24T05:01:12.289Z,101250.20
2018-04-24T05:03:48.493Z,101249.25
2018-04-24T05:06:20.167Z,101252.30
2018-04-24T05:08:50.719Z,101253.78
2018-04-24T05:11:23.153Z,101226.52
2018-04-24T05:13:53.660Z,101253.15
2018-04-24T05:16:24.194Z,101234.43
2018-04-24T05:18:54.774Z,101249.72
2018-04-24T05:21:25.546Z,101252.78
2018-04-24T05:23:56.160Z,101248.09
2018-04-24T05:26:26.607Z,101246.63
2018-04-24T05:28:58.111Z,101245.97
2018-04-24T05:31:28.687Z,101256.28
2018-04-24T05:34:03.664Z,101247.33
2018-04-24T05:36:35.607Z,101254.88
2018-04-24T05:39:10.515Z,101258.30
2018-04-24T05:41:40.854Z,101266.68
2018-04-24T05:44:11.099Z,101270.84
2018-04-24T05:46:42.341Z,101267.46
2018-04-24T05:49:12.557Z,101271.97
2018-04-24T05:51:45.593Z,101273.23
2018-04-24T05:54:16.080Z,101275.14
2018-04-24T05:56:46.828Z,101270.19
2018-04-24T05:59:18.565Z,101272.30
2018-04-24T06:01:49.258Z,101269.41
2018-04-24T06:04:20.575Z,101278.07
2018-04-24T06:06:50.855Z,101277.09
2018-04-24T06:09:29.604Z,101283.69
2018-04-24T06:12:00.590Z,101268.86
2018-04-24T06:14:30.884Z,101278.22
2018-04-24T06:17:02.098Z,101275.88
2018-04-24T06:19:38.754Z,101274.48
2018-04-24T06:22:09.730Z,101269.27
2018-04-24T06:24:41.325Z,101267.13
2018-04-24T06:27:11.937Z,101263.07
2018-04-24T06:29:42.323Z,101269.52
2018-04-24T06:32:14.799Z,101259.89
2018-04-24T06:34:45.421Z,101269.16
2018-04-24T06:37:16.964Z,101279.04
2018-04-24T06:39:48.589Z,101269.16
2018-04-24T06:42:19.850Z,101270.91
2018-04-24T06:44:50.733Z,101262.27
2018-04-24T06:47:21.361Z,101261.55
2018-04-24T06:49:52.090Z,101263.03
2018-04-24T06:52:28.962Z,101261.34
2018-04-24T06:55:02.960Z,101257.17
2018-04-24T06:57:33.918Z,101255.06
2018-04-24T07:00:07.442Z,101262.38
2018-04-24T07:02:37.942Z,101264.05
2018-04-24T07:05:09.621Z,101241.06
2018-04-24T07:07:40.506Z,101265.77
2018-04-24T07:10:12.642Z,101261.91
2018-04-24T07:12:44.077Z,101257.67
2018-04-24T07:15:17.760Z,101241.30
2018-04-24T07:17:48.402Z,101259.22
2018-04-24T07:20:19.366Z,101261.40
2018-04-24T07:22:49.860Z,101269.73
2018-04-24T07:25:21.441Z,101268.27
2018-04-24T07:27:52.039Z,101263.02
2018-04-24T07:30:23.380Z,101273.94
2018-04-24T07:32:53.717Z,101275.98
2018-04-24T07:35:26.692Z,101279.72
2018-04-24T07:37:56.884Z,101268.15
2018-04-24T07:40:28.401Z,101278.16
2018-04-24T07:42:59.556Z,101280.78
2018-04-24T07:45:31.512Z,101286.36
2018-04-24T07:48:02.716Z,101289.78
2018-04-24T07:50:37.188Z,101288.52
2018-04-24T07:53:07.497Z,101290.45
2018-04-24T07:55:40.578Z,101290.42
2018-04-24T07:58:11.672Z,101277.36
2018-04-24T08:00:43.232Z,101284.45
2018-04-24T08:03:15.715Z,101274.95
2018-04-24T08:05:55.039Z,101285.63
2018-04-24T08:08:27.465Z,101273.92
2018-04-24T08:10:58.195Z,101283.33
2018-04-24T08:13:30.183Z,101279.48
2018-04-24T08:16:00.641Z,101279.77
2018-04-24T08:18:31.413Z,101282.59
2018-04-24T08:21:01.914Z,101288.30
2018-04-24T08:23:32.890Z,101286.54
2018-04-24T08:26:04.364Z,101286.89
2018-04-24T08:28:34.742Z,101303.91
2018-04-24T08:31:05.478Z,101290.39
2018-04-24T08:33:36.927Z,101302.02
2018-04-24T08:36:07.277Z,101298.28
2018-04-24T08:38:38.491Z,101314.10
2018-04-24T08:41:13.104Z,101309.94
2018-04-24T08:43:44.508Z,101308.43
2018-04-24T08:46:15.365Z,101272.28
2018-04-24T08:48:45.759Z,101311.42
2018-04-24T08:51:16.361Z,101303.44
2018-04-24T08:53:47.177Z,101312.52
2018-04-24T08:56:17.276Z,101317.70
2018-04-24T08:58:47.543Z,101321.93
2018-04-24T09:01:18.647Z,101321.47
2018-04-24T09:03:49.674Z,101324.44
2018-04-24T09:06:19.751Z,101323.08
2018-04-24T09:08:50.799Z,101330.39
2018-04-24T09:11:21.047Z,101330.20
2018-04-24T09:56:01.769Z,101318.56
2018-04-24T09:58:33.172Z,101331.26
2018-04-24T10:01:08.096Z,101320.34
2018-04-24T10:03:39.079Z,101324.34
2018-04-24T10:06:10.659Z,101319.67
2018-04-24T10:08:42.702Z,101318.37
2018-04-24T10:11:14.142Z,101317.58
2018-04-24T10:13:49.096Z,101321.46
2018-04-24T10:16:26.354Z,101325.95
2018-04-24T10:18:59.721Z,101315.44
2018-04-24T10:21:30.741Z,101316.88
2018-04-24T10:24:01.831Z,101311.96
2018-04-24T10:26:37.234Z,101303.95
2018-04-24T10:29:08.315Z,101291.95
2018-04-24T10:31:40.032Z,101287.16
2018-04-24T10:34:16.133Z,101291.50
2018-04-24T10:36:49.390Z,101299.04
2018-04-24T10:39:19.608Z,101285.07
2018-04-24T10:41:49.985Z,101283.72
2018-04-24T10:44:20.211Z,101281.06
2018-04-24T10:46:50.545Z,101281.19
2018-04-24T10:49:20.717Z,101283.52
2018-04-24T10:51:53.335Z,101269.84
2018-04-24T10:54:34.603Z,101288.97
2018-04-24T10:57:05.262Z,101285.90
2018-04-24T10:59:38.076Z,101276.78
2018-04-24T11:02:08.754Z,101279.89
2018-04-24T11:04:39.922Z,101274.86
2018-04-24T11:07:11.467Z,101276.14
2018-04-24T11:09:42.902Z,101267.14
2018-04-24T11:12:13.402Z,101277.91
2018-04-24T11:14:43.767Z,101278.56
2018-04-24T11:17:19.649Z,101257.23
2018-04-24T11:19:51.152Z,101262.69
2018-04-24T11:22:21.987Z,101262.30
2018-04-24T11:24:53.422Z,101258.91
2018-04-24T11:27:25.339Z,101255.69
2018-04-24T11:29:55.784Z,101256.33
2018-04-24T11:32:26.241Z,101264.31
2018-04-24T11:34:56.802Z,101264.73
2018-04-24T11:37:27.867Z,101262.05
2018-04-24T11:39:58.259Z,101262.98
2018-04-24T11:42:29.656Z,101272.23
2018-04-24T11:45:00.442Z,101273.66
2018-04-24T11:47:33.648Z,101267.44
2018-04-24T11:50:03.962Z,101272.13
2018-04-24T11:52:34.701Z,101264.56
2018-04-24T11:55:05.709Z,101277.75
2018-04-24T11:57:36.770Z,101277.25
2018-04-24T12:00:11.002Z,101263.45
2018-04-24T12:02:44.981Z,101267.56
2018-04-24T12:05:18.926Z,101263.71
2018-04-24T12:07:49.272Z,101262.62
2018-04-24T12:10:21.392Z,101249.50
2018-04-24T12:12:52.541Z,101251.08
2018-04-24T12:15:41.958Z,101247.49
2018-04-24T12:21:48.203Z,101255.66
2018-04-24T12:24:51.511Z,101243.92
2018-04-24T12:27:32.164Z,101257.35
2018-04-24T12:30:07.910Z,101254.09
2018-04-24T12:32:42.356Z,101248.61
2018-04-24T12:35:16.881Z,101253.92
2018-04-24T12:37:49.058Z,101251.50
2018-04-24T12:40:19.816Z,101243.22
2018-04-24T12:43:05.909Z,101239.39
2018-04-24T12:45:42.955Z,101233.69
2018-04-24T12:48:15.746Z,101237.79
2018-04-24T12:50:53.315Z,101245.29
2018-04-24T12:53:24.159Z,101237.55
2018-04-24T12:55:55.298Z,101228.32
2018-04-24T12:58:25.684Z,101235.28
2018-04-24T13:00:57.487Z,101228.14
2018-04-24T13:03:28.106Z,101234.47
2018-04-24T13:05:58.604Z,101226.87
2018-04-24T13:08:29.591Z,101199.66
2018-04-24T13:11:00.751Z,101213.80
2018-04-24T13:13:36.326Z,101206.12
2018-04-24T13:16:09.635Z,101205.66
2018-04-24T13:18:40.008Z,101202.00
2018-04-24T13:21:14.638Z,101198.61
2018-04-24T13:23:44.858Z,101193.34
2018-04-24T13:26:16.360Z,101185.42
2018-04-24T13:28:52.281Z,101204.72
2018-04-24T13:31:30.185Z,101202.45
2018-04-24T13:34:01.286Z,101196.51
2018-04-24T13:36:31.738Z,101176.83
2018-04-24T13:39:03.051Z,101183.50
2018-04-24T13:41:33.552Z,101177.88
2018-04-24T13:44:03.852Z,101167.51
2018-04-24T13:46:34.755Z,101177.61
2018-04-24T13:49:05.186Z,101175.78
2018-04-24T13:51:36.043Z,101173.39
2018-04-24T13:54:06.935Z,101160.87
2018-04-24T13:56:38.081Z,101167.27
2018-04-24T13:59:10.524Z,101159.19
2018-04-24T14:01:42.284Z,101153.69
2018-04-24T14:04:12.673Z,101145.63
2018-04-24T14:06:44.429Z,101150.91
2018-04-24T14:09:15.072Z,101147.00
2018-04-24T14:11:46.231Z,101144.48
2018-04-24T14:14:17.779Z,101136.88
2018-04-24T14:16:56.077Z,101137.37
2018-04-24T14:19:28.228Z,101137.13
2018-04-24T14:21:58.930Z,101135.14
2018-04-24T14:24:29.340Z,101139.11
2018-04-24T14:27:08.386Z,101126.95
2018-04-24T14:29:42.488Z,101130.08
2018-04-24T14:32:14.517Z,101129.06
2018-04-24T14:34:47.969Z,101115.37
2018-04-24T14:37:25.331Z,101110.91
2018-04-24T14:39:56.475Z,101109.30
2018-04-24T14:42:34.995Z,101109.27
2018-04-24T14:45:22.399Z,101103.59
2018-04-24T14:47:55.844Z,101097.11
2018-04-24T14:50:27.509Z,101097.77
2018-04-24T14:52:59.982Z,101087.33
2018-04-24T14:55:31.355Z,101092.73
2018-04-24T14:58:02.213Z,101074.28
2018-04-24T15:00:33.420Z,101078.56
2018-04-24T15:03:03.959Z,101077.23
2018-04-24T15:05:34.635Z,101071.65
2018-04-24T15:08:05.815Z,101068.55
2018-04-24T15:10:41.037Z,101060.33
2018-04-24T15:13:16.397Z,101054.80
2018-04-24T15:18:41.051Z,101042.03
2018-04-24T15:21:18.630Z,101032.52
2018-04-24T15:23:53.379Z,101036.23
2018-04-24T15:26:27.009Z,101023.73
2018-04-24T15:29:05.248Z,101020.09
2018-04-24T15:31:38.874Z,101016.22
2018-04-24T15:34:11.938Z,101021.53
2018-04-24T15:36:46.809Z,101011.52
2018-04-24T15:39:19.099Z,101008.86
2018-04-24T15:41:50.646Z,101004.44
2018-04-24T15:44:24.696Z,101006.25
2018-04-24T15:46:57.566Z,101002.81
2018-04-24T15:49:36.638Z,100994.08
2018-04-24T15:55:16.922Z,100994.50
2018-04-24T15:58:09.630Z,100987.45
2018-04-24T16:00:50.792Z,100992.97
2018-04-24T16:09:15.621Z,101001.26
2018-04-24T16:11:51.526Z,100996.66
2018-04-24T16:14:39.098Z,100996.05
2018-04-24T16:17:18.974Z,100992.97
2018-04-24T16:20:00.607Z,100989.45
2018-04-24T16:22:35.280Z,100992.25
2018-04-24T16:25:10.101Z,100994.35
2018-04-24T16:27:43.410Z,100989.93
2018-04-24T16:30:20.303Z,100985.05
2018-04-24T16:33:11.799Z,100982.45
2018-04-24T16:35:45.241Z,100981.66
2018-04-24T16:38:17.728Z,100980.86
2018-04-24T16:41:00.951Z,100978.64
2018-04-24T16:43:42.631Z,100961.02
2018-04-24T16:46:19.592Z,100958.50
2018-04-24T16:49:01.169Z,100961.37
2018-04-24T16:51:35.997Z,100950.37
2018-04-24T16:54:14.462Z,100946.38
2018-04-24T16:56:46.625Z,100948.77
2018-04-24T16:59:18.139Z,100941.45
2018-04-24T17:01:50.015Z,100941.00
2018-04-24T17:04:22.488Z,100939.94
2018-04-24T17:06:55.669Z,100946.44
2018-04-24T17:09:26.596Z,100940.66
2018-04-24T17:11:57.676Z,100933.05
2018-04-24T17:14:28.096Z,100933.48
2018-04-24T17:17:02.029Z,100938.75
2018-04-24T17:22:19.265Z,100926.02
2018-04-24T17:24:51.017Z,100928.31
2018-04-24T17:27:26.318Z,100926.28
2018-04-24T17:29:59.749Z,100913.72
2018-04-24T17:32:41.022Z,100913.06
2018-04-24T17:35:29.014Z,100911.69
2018-04-24T17:41:46.908Z,100905.94
2018-04-24T17:44:29.239Z,100895.06
2018-04-24T17:47:13.070Z,100899.02
2018-04-24T17:49:47.613Z,100901.28
2018-04-24T17:52:31.398Z,100891.83
2018-04-24T17:55:38.066Z,100897.50
2018-04-24T17:58:40.487Z,100886.44
2018-04-24T18:04:34.695Z,100888.27
2018-04-24T18:07:06.338Z,100891.30
2018-04-24T18:09:40.489Z,100891.36
2018-04-24T18:12:13.659Z,100881.69
2018-04-24T18:14:45.922Z,100881.94
2018-04-24T18:17:17.005Z,100888.63
2018-04-24T18:19:47.502Z,100889.67
2018-04-24T18:25:03.011Z,100885.53
2018-04-24T18:27:34.826Z,100887.91
2018-04-24T18:30:07.745Z,100889.81
2018-04-24T18:32:39.227Z,100890.75
2018-04-24T18:35:13.724Z,100894.55
2018-04-24T18:37:45.417Z,100886.31
2018-04-24T18:40:17.879Z,100893.00
2018-04-24T18:42:49.114Z,100892.09
2018-04-24T18:45:27.990Z,100872.74
2018-04-24T18:47:58.990Z,100866.27
2018-04-24T18:50:30.837Z,100878.78
2018-04-24T18:53:01.109Z,100881.75
2018-04-24T18:55:32.304Z,100885.23
2018-04-24T18:58:03.556Z,100879.86
2018-04-24T19:00:35.120Z,100877.52
2018-04-24T19:03:05.853Z,100872.55
2018-04-24T19:05:38.141Z,100874.28
2018-04-24T19:08:10.860Z,100867.47
2018-04-24T19:10:45.326Z,100872.47
2018-04-24T19:13:18.007Z,100873.52
2018-04-24T19:15:50.903Z,100867.70
2018-04-24T19:18:32.628Z,100863.30
2018-04-24T19:21:04.291Z,100863.02
2018-04-24T19:23:35.233Z,100841.73
2018-04-24T19:26:13.601Z,100851.55
2018-04-24T19:28:46.051Z,100852.27
2018-04-24T19:31:22.911Z,100855.33
2018-04-24T19:33:54.529Z,100858.77
2018-04-24T19:36:26.546Z,100844.38
2018-04-24T19:39:03.019Z,100862.03
2018-04-24T19:41:53.492Z,100855.41
2018-04-24T19:44:24.804Z,100862.98
2018-04-24T19:47:12.470Z,100849.55
2018-04-24T19:50:19.907Z,100852.55
2018-04-24T19:52:51.934Z,100848.19
2018-04-24T19:55:28.917Z,100842.78
2018-04-24T19:58:12.815Z,100851.11
2018-04-24T20:00:44.800Z,100834.34
2018-04-24T20:03:17.334Z,100847.86
2018-04-24T20:05:50.300Z,100845.84
2018-04-24T20:08:24.455Z,100835.66
2018-04-24T20:10:57.013Z,100838.33
2018-04-24T20:13:28.241Z,100833.05
2018-04-24T20:16:02.507Z,100833.61
2018-04-24T20:18:35.133Z,100834.30
2018-04-24T20:21:07.521Z,100830.94
2018-04-24T20:23:40.336Z,100826.26
2018-04-24T20:26:12.204Z,100814.80
2018-04-24T20:28:43.162Z,100785.73
2018-04-24T20:31:15.995Z,100783.38
2018-04-24T20:33:49.156Z,100799.00
2018-04-24T20:36:22.764Z,100784.89
2018-04-24T20:39:04.977Z,100796.45
2018-04-24T20:44:19.915Z,100781.66
2018-04-24T20:46:51.636Z,100782.33
2018-04-24T20:49:27.522Z,100784.53
2018-04-24T20:52:00.246Z,100777.86
2018-04-24T20:54:32.307Z,100761.55
2018-04-24T20:57:05.215Z,100759.80
2018-04-24T20:59:38.462Z,100758.42
2018-04-24T21:02:13.262Z,100736.35
2018-04-24T21:04:53.813Z,100744.81
2018-04-24T21:07:29.154Z,100744.22
2018-04-24T21:10:02.902Z,100734.57
2018-04-24T21:12:38.184Z,100728.10
2018-04-24T21:15:13.458Z,100704.67
2018-04-24T21:17:45.475Z,100711.22
2018-04-24T21:20:21.083Z,100712.14
2018-04-24T21:22:53.268Z,100707.67
2018-04-24T21:25:24.335Z,100710.60
2018-04-24T21:27:57.081Z,100711.17
2018-04-24T21:30:30.785Z,100708.09
2018-04-24T21:33:06.195Z,100705.20
2018-04-24T21:35:39.089Z,100704.13
2018-04-24T21:38:10.107Z,100700.38
2018-04-24T21:40:41.879Z,100690.45
2018-04-24T21:43:12.580Z,100687.44
2018-04-24T21:45:47.809Z,100676.77
2018-04-24T21:48:42.170Z,100677.48
2018-04-24T21:51:19.377Z,100678.63
2018-04-24T21:56:47.225Z,100666.12
2018-04-24T22:05:42.599Z,100660.95
2018-04-24T22:08:14.100Z,100654.14
2018-04-24T22:10:44.745Z,100653.39
2018-04-24T22:16:10.437Z,100640.02
2018-04-24T22:18:41.494Z,100630.93
2018-04-24T22:21:12.233Z,100626.81
2018-04-24T22:23:44.546Z,100629.22
2018-04-24T22:26:16.701Z,100625.62
2018-04-24T22:28:48.783Z,100619.00
2018-04-24T22:31:20.553Z,100620.05
2018-04-24T22:33:52.731Z,100619.83
2018-04-24T22:36:24.305Z,100618.62
2018-04-24T22:38:55.732Z,100609.87
2018-04-24T22:41:27.561Z,100615.03
2018-04-24T22:43:58.934Z,100615.88
2018-04-24T22:46:31.079Z,100603.46
2018-04-24T22:49:02.683Z,100600.61
2018-04-24T22:51:40.931Z,100591.27
2018-04-24T22:54:11.222Z,100594.48
2018-04-24T22:56:41.566Z,100586.22
2018-04-24T22:59:12.749Z,100587.66
2018-04-24T23:01:45.598Z,100575.74
2018-04-24T23:04:17.427Z,100577.80
2018-04-24T23:06:49.341Z,100573.83
2018-04-24T23:09:20.415Z,100579.17
2018-04-24T23:12:02.060Z,100566.67
2018-04-24T23:14:48.902Z,100562.29
2018-04-24T23:17:36.405Z,100570.05
2018-04-24T23:20:17.053Z,100562.47
2018-04-24T23:22:47.798Z,100555.77
2018-04-24T23:25:19.331Z,100547.98
2018-04-24T23:27:54.372Z,100551.41
2018-04-24T23:30:25.619Z,100523.70
2018-04-24T23:32:56.210Z,100523.55
2018-04-24T23:35:27.539Z,100515.88
2018-04-24T23:37:58.449Z,100510.30
2018-04-24T23:40:28.727Z,100505.56
2018-04-24T23:43:00.298Z,100516.48
2018-04-24T23:45:32.213Z,100509.50
2018-04-24T23:48:03.174Z,100508.22
2018-04-24T23:50:34.722Z,100501.27
2018-04-24T23:53:06.021Z,100501.83
2018-04-24T23:58:35.084Z,100504.38
